createdAt,value
2022-07-31T00:00:35.660Z,98378.72
2022-07-31T00:02:38.704Z,98381.53
2022-07-31T00:04:41.821Z,98376.41
2022-07-31T00:06:45.446Z,98383.66
2022-07-31T00:08:50.598Z,98381.31
2022-07-31T00:10:54.042Z,98378.00
2022-07-31T00:12:58.625Z,98375.97
2022-07-31T00:15:01.891Z,98375.75
2022-07-31T00:17:05.443Z,98375.19
2022-07-31T00:19:08.825Z,98374.38
2022-07-31T00:21:14.032Z,98361.97
2022-07-31T00:23:18.927Z,98367.41
2022-07-31T00:25:22.210Z,98371.72
2022-07-31T00:27:25.486Z,98365.63
2022-07-31T00:29:30.569Z,98371.88
2022-07-31T00:31:33.726Z,98373.00
2022-07-31T00:33:42.619Z,98368.72
2022-07-31T00:35:45.762Z,98368.31
2022-07-31T00:37:49.007Z,98363.16
2022-07-31T00:39:52.118Z,98358.19
2022-07-31T00:41:55.499Z,98360.16
2022-07-31T00:43:58.526Z,98363.09
2022-07-31T00:46:03.046Z,98364.25
2022-07-31T00:48:07.086Z,98363.66
2022-07-31T00:50:11.367Z,98361.16
2022-07-31T00:52:14.475Z,98369.81
2022-07-31T00:54:23.039Z,98366.91
2022-07-31T00:56:26.686Z,98366.75
2022-07-31T00:58:29.685Z,98363.81
2022-07-31T01:00:32.791Z,98360.81
2022-07-31T01:02:38.383Z,98364.19
2022-07-31T01:04:49.843Z,98368.75
2022-07-31T01:06:53.186Z,98369.91
2022-07-31T01:08:56.387Z,98370.72
2022-07-31T01:11:05.527Z,98364.63
2022-07-31T01:13:19.189Z,98366.44
2022-07-31T01:15:22.647Z,98368.09
2022-07-31T01:17:26.742Z,98364.47
2022-07-31T01:19:38.120Z,98366.13
2022-07-31T01:21:56.015Z,98371.41
2022-07-31T01:24:16.421Z,98363.31
2022-07-31T01:26:50.060Z,98364.31
2022-07-31T01:29:10.080Z,98365.28
2022-07-31T01:31:26.642Z,98363.09
2022-07-31T01:33:35.688Z,98356.47
2022-07-31T01:35:43.617Z,98362.84
2022-07-31T01:37:49.183Z,98355.06
2022-07-31T01:39:56.179Z,98361.16
2022-07-31T01:42:00.253Z,98367.47
2022-07-31T01:44:05.821Z,98369.53
2022-07-31T01:46:11.758Z,98373.19
2022-07-31T01:48:17.152Z,98364.72
2022-07-31T01:50:43.047Z,98361.53
2022-07-31T01:52:45.043Z,98355.72
2022-07-31T01:54:48.946Z,98360.47
2022-07-31T01:56:52.255Z,98352.69
2022-07-31T01:58:56.212Z,98359.13
2022-07-31T02:01:27.273Z,98359.13
2022-07-31T02:03:44.510Z,98358.41
2022-07-31T02:05:50.450Z,98359.41
2022-07-31T02:07:54.274Z,98361.38
2022-07-31T02:10:00.662Z,98366.66
2022-07-31T02:12:10.684Z,98363.31
2022-07-31T02:14:15.525Z,98357.34
2022-07-31T02:16:20.055Z,98359.31
2022-07-31T02:18:28.782Z,98357.78
2022-07-31T02:20:46.965Z,98359.22
2022-07-31T02:22:50.099Z,98356.84
2022-07-31T02:24:53.251Z,98358.81
2022-07-31T02:26:56.575Z,98357.28
2022-07-31T02:29:00.077Z,98355.81
2022-07-31T02:31:04.003Z,98350.25
2022-07-31T02:33:09.801Z,98351.69
2022-07-31T02:35:14.940Z,98353.94
2022-07-31T02:37:18.399Z,98352.28
2022-07-31T02:39:22.087Z,98357.84
2022-07-31T02:41:26.865Z,98357.84
2022-07-31T02:43:30.378Z,98362.44
2022-07-31T02:45:35.420Z,98355.50
2022-07-31T02:47:40.431Z,98352.16
2022-07-31T02:49:47.495Z,98361.88
2022-07-31T02:51:52.866Z,98363.03
2022-07-31T02:53:56.595Z,98351.75
2022-07-31T02:56:04.263Z,98347.47
2022-07-31T02:58:09.570Z,98350.25
2022-07-31T03:00:22.669Z,98349.50
2022-07-31T03:02:36.831Z,98352.28
2022-07-31T03:04:41.573Z,98355.22
2022-07-31T03:06:45.715Z,98364.28
2022-07-31T03:08:50.112Z,98357.19
2022-07-31T03:10:57.131Z,98359.97
2022-07-31T03:13:02.055Z,98364.28
2022-07-31T03:15:06.290Z,98372.63
2022-07-31T03:17:10.470Z,98361.38
2022-07-31T03:19:14.022Z,98358.03
2022-07-31T03:21:18.995Z,98361.97
2022-07-31T03:23:23.934Z,98361.53
2022-07-31T03:25:34.400Z,98359.19
2022-07-31T03:27:37.753Z,98361.16
2022-07-31T03:29:43.720Z,98356.00
2022-07-31T03:31:47.699Z,98353.78
2022-07-31T03:33:50.898Z,98356.84
2022-07-31T03:35:54.254Z,98359.94
2022-07-31T03:37:57.449Z,98358.38
2022-07-31T03:40:00.840Z,98368.41
2022-07-31T03:42:05.903Z,98364.38
2022-07-31T03:44:09.994Z,98366.47
2022-07-31T03:46:13.714Z,98358.28
2022-07-31T03:48:16.886Z,98356.22
2022-07-31T03:50:20.058Z,98357.44
2022-07-31T03:52:23.300Z,98350.41
2022-07-31T03:54:26.482Z,98354.69
2022-07-31T03:56:51.696Z,98364.25
2022-07-31T03:58:56.851Z,98369.53
2022-07-31T04:01:00.525Z,98366.75
2022-07-31T04:03:07.704Z,98374.69
2022-07-31T04:05:34.203Z,98379.13
2022-07-31T04:07:37.306Z,98379.13
2022-07-31T04:09:40.598Z,98383.56
2022-07-31T04:11:45.536Z,98380.91
2022-07-31T04:13:48.682Z,98372.72
2022-07-31T04:15:53.089Z,98374.41
2022-07-31T04:17:56.333Z,98370.66
2022-07-31T04:20:07.121Z,98368.16
2022-07-31T04:22:10.634Z,98365.94
2022-07-31T04:24:16.984Z,98365.78
2022-07-31T04:26:30.553Z,98371.19
2022-07-31T04:28:37.647Z,98376.75
2022-07-31T04:30:40.983Z,98367.34
2022-07-31T04:32:45.501Z,98373.56
2022-07-31T04:34:53.439Z,98380.50
2022-07-31T04:36:56.589Z,98374.25
2022-07-31T04:38:59.875Z,98381.19
2022-07-31T04:41:02.948Z,98380.09
2022-07-31T04:43:06.048Z,98378.69
2022-07-31T04:45:10.690Z,98387.31
2022-07-31T04:47:14.097Z,98388.81
2022-07-31T04:49:21.480Z,98387.72
2022-07-31T04:51:25.325Z,98397.84
2022-07-31T04:53:28.475Z,98395.75
2022-07-31T04:55:31.660Z,98393.84
2022-07-31T04:57:35.246Z,98396.16
2022-07-31T04:59:59.664Z,98402.69
2022-07-31T05:02:02.041Z,98401.19
2022-07-31T05:04:05.831Z,98398.13
2022-07-31T05:06:13.831Z,98401.16
2022-07-31T05:08:16.880Z,98390.19
2022-07-31T05:10:39.583Z,98401.00
2022-07-31T05:12:42.699Z,98395.00
2022-07-31T05:14:45.728Z,98401.66
2022-07-31T05:16:49.915Z,98394.16
2022-07-31T05:18:54.207Z,98399.56
2022-07-31T05:21:17.931Z,98394.00
2022-07-31T05:23:50.735Z,98395.44
2022-07-31T05:26:01.906Z,98399.00
2022-07-31T05:28:08.882Z,98390.13
2022-07-31T05:30:14.032Z,98388.19
2022-07-31T05:32:17.586Z,98396.34
2022-07-31T05:34:22.105Z,98400.22
2022-07-31T05:36:27.544Z,98393.28
2022-07-31T05:38:31.258Z,98400.50
2022-07-31T05:40:55.316Z,98393.22
2022-07-31T05:43:18.634Z,98391.25
2022-07-31T05:45:42.013Z,98401.44
2022-07-31T05:47:45.044Z,98400.13
2022-07-31T05:49:48.943Z,98396.00
2022-07-31T05:51:55.011Z,98398.19
2022-07-31T05:53:58.065Z,98404.50
2022-07-31T05:56:19.542Z,98408.13
2022-07-31T05:58:25.980Z,98402.66
2022-07-31T06:00:30.285Z,98405.00
2022-07-31T06:02:35.540Z,98411.47
2022-07-31T06:05:04.895Z,98407.53
2022-07-31T06:07:09.570Z,98416.84
2022-07-31T06:09:12.752Z,98412.72
2022-07-31T06:11:19.593Z,98411.41
2022-07-31T06:13:25.814Z,98419.25
2022-07-31T06:15:32.088Z,98416.00
2022-07-31T06:17:43.967Z,98412.72
2022-07-31T06:20:02.402Z,98415.06
2022-07-31T06:22:05.935Z,98420.28
2022-07-31T06:24:10.946Z,98413.69
2022-07-31T06:26:19.508Z,98421.16
2022-07-31T06:28:47.599Z,98411.56
2022-07-31T06:30:48.859Z,98416.56
2022-07-31T06:32:51.979Z,98417.59
2022-07-31T06:34:55.075Z,98424.06
2022-07-31T06:36:58.595Z,98421.09
2022-07-31T06:39:02.851Z,98424.94
2022-07-31T06:41:07.192Z,98428.88
2022-07-31T06:43:26.849Z,98428.22
2022-07-31T06:45:52.886Z,98432.88
2022-07-31T06:48:15.535Z,98433.91
2022-07-31T06:50:23.237Z,98435.56
2022-07-31T06:52:46.579Z,98431.41
2022-07-31T06:54:49.740Z,98438.56
2022-07-31T06:56:54.223Z,98439.19
2022-07-31T06:58:57.359Z,98435.81
2022-07-31T07:01:00.469Z,98430.78
2022-07-31T07:03:03.581Z,98438.91
2022-07-31T07:05:08.201Z,98426.22
2022-07-31T07:07:11.984Z,98428.91
2022-07-31T07:09:15.014Z,98432.53
2022-07-31T07:11:18.183Z,98433.31
2022-07-31T07:13:23.581Z,98431.59
2022-07-31T07:15:26.899Z,98433.41
2022-07-31T07:17:30.402Z,98433.66
2022-07-31T07:19:33.849Z,98420.06
2022-07-31T07:21:37.026Z,98426.91
2022-07-31T07:23:40.373Z,98418.38
2022-07-31T07:25:54.410Z,98422.34
2022-07-31T07:27:59.109Z,98423.78
2022-07-31T07:30:03.929Z,98422.88
2022-07-31T07:32:07.491Z,98427.03
2022-07-31T07:34:10.818Z,98429.59
2022-07-31T07:36:23.410Z,98427.31
2022-07-31T07:38:47.870Z,98432.22
2022-07-31T07:40:52.287Z,98425.25
2022-07-31T07:42:58.782Z,98429.66
2022-07-31T07:45:08.217Z,98428.00
2022-07-31T07:47:11.703Z,98430.34
2022-07-31T07:49:14.797Z,98427.31
2022-07-31T07:51:38.272Z,98427.41
2022-07-31T07:54:16.321Z,98430.91
2022-07-31T07:56:55.014Z,98431.81
2022-07-31T07:59:16.515Z,98421.69
2022-07-31T08:01:40.990Z,98426.28
2022-07-31T08:04:01.930Z,98410.00
2022-07-31T08:06:05.598Z,98419.78
2022-07-31T08:08:13.157Z,98417.44
2022-07-31T08:10:19.222Z,98408.16
2022-07-31T08:12:45.579Z,98407.72
2022-07-31T08:15:08.799Z,98413.44
2022-07-31T08:17:20.488Z,98406.63
2022-07-31T08:19:23.610Z,98407.63
2022-07-31T08:21:27.256Z,98405.13
2022-07-31T08:23:31.358Z,98399.13
2022-07-31T08:25:34.505Z,98405.53
2022-07-31T08:27:40.538Z,98402.84
2022-07-31T08:29:45.748Z,98406.53
2022-07-31T08:31:52.832Z,98405.72
2022-07-31T08:34:31.324Z,98403.13
2022-07-31T08:36:35.812Z,98400.75
2022-07-31T08:38:39.570Z,98402.94
2022-07-31T08:41:08.946Z,98406.94
2022-07-31T08:44:00.366Z,98404.88
2022-07-31T08:45:40.330Z,98399.50
2022-07-31T08:47:56.893Z,98396.91
2022-07-31T08:50:06.664Z,98396.44
2022-07-31T08:52:13.926Z,98397.66
2022-07-31T08:54:32.498Z,98398.94
2022-07-31T08:56:38.055Z,98396.72
2022-07-31T08:58:41.581Z,98399.53
2022-07-31T09:00:44.710Z,98402.84
2022-07-31T09:02:48.070Z,98403.91
2022-07-31T09:05:13.930Z,98394.38
2022-07-31T09:07:17.895Z,98397.09
2022-07-31T09:09:21.005Z,98396.03
2022-07-31T09:11:24.360Z,98391.50
2022-07-31T09:14:02.362Z,98392.53
2022-07-31T09:16:14.433Z,98390.66
2022-07-31T09:18:19.570Z,98392.94
2022-07-31T09:20:26.891Z,98395.19
2022-07-31T09:22:32.336Z,98391.53
2022-07-31T09:24:39.751Z,98389.78
2022-07-31T09:26:44.444Z,98386.19
2022-07-31T09:28:51.355Z,98390.59
2022-07-31T09:30:57.034Z,98394.44
2022-07-31T09:33:29.618Z,98379.44
2022-07-31T09:35:53.649Z,98377.34
2022-07-31T09:37:57.961Z,98374.16
2022-07-31T09:40:21.097Z,98380.25
2022-07-31T09:42:56.436Z,98379.81
2022-07-31T09:45:02.758Z,98374.66
2022-07-31T09:47:07.690Z,98373.75
2022-07-31T09:49:11.264Z,98368.28
2022-07-31T09:51:17.513Z,98375.06
2022-07-31T09:53:20.867Z,98371.00
2022-07-31T09:55:27.844Z,98371.00
2022-07-31T09:57:31.104Z,98364.94
2022-07-31T09:59:38.083Z,98363.13
2022-07-31T10:01:41.811Z,98363.72
2022-07-31T10:03:46.390Z,98357.28
2022-07-31T10:05:50.624Z,98361.09
2022-07-31T10:07:55.518Z,98355.59
2022-07-31T10:10:09.532Z,98355.47
2022-07-31T10:12:30.993Z,98352.91
2022-07-31T10:14:40.153Z,98346.47
2022-07-31T10:16:45.134Z,98345.31
2022-07-31T10:19:11.670Z,98350.00
2022-07-31T10:21:43.051Z,98339.97
2022-07-31T10:23:56.214Z,98342.66
2022-07-31T10:26:00.771Z,98331.13
2022-07-31T10:28:04.535Z,98324.03
2022-07-31T10:30:08.909Z,98331.63
2022-07-31T10:32:17.754Z,98327.59
2022-07-31T10:34:59.066Z,98326.50
2022-07-31T10:37:32.740Z,98325.91
2022-07-31T10:39:58.513Z,98320.28
2022-07-31T10:42:14.114Z,98330.16
2022-07-31T10:44:23.355Z,98323.22
2022-07-31T10:46:52.305Z,98319.28
2022-07-31T10:49:15.840Z,98323.19
2022-07-31T10:51:47.692Z,98327.78
2022-07-31T10:54:11.566Z,98312.19
2022-07-31T10:56:47.496Z,98311.78
2022-07-31T10:59:29.110Z,98308.09
2022-07-31T11:01:55.058Z,98299.41
2022-07-31T11:04:32.962Z,98296.47
2022-07-31T11:06:46.696Z,98294.28
2022-07-31T11:09:08.598Z,98297.09
2022-07-31T11:11:33.414Z,98306.53
2022-07-31T11:13:58.143Z,98298.69
2022-07-31T11:16:13.474Z,98295.84
2022-07-31T11:18:26.743Z,98295.97
2022-07-31T11:20:43.148Z,98288.56
2022-07-31T11:22:54.325Z,98288.09
2022-07-31T11:24:58.693Z,98290.22
2022-07-31T11:27:02.057Z,98286.81
2022-07-31T11:30:00.379Z,98282.91
2022-07-31T11:31:31.070Z,98273.47
2022-07-31T11:33:41.963Z,98271.69
2022-07-31T11:35:46.377Z,98263.25
2022-07-31T11:37:57.782Z,98263.81
2022-07-31T11:40:01.882Z,98255.31
2022-07-31T11:42:07.586Z,98244.97
2022-07-31T11:44:12.344Z,98251.00
2022-07-31T11:46:20.108Z,98240.50
2022-07-31T11:48:27.772Z,98245.28
2022-07-31T11:50:32.324Z,98244.84
2022-07-31T11:52:36.973Z,98239.44
2022-07-31T11:54:42.070Z,98230.41
2022-07-31T11:56:45.178Z,98233.34
2022-07-31T11:58:49.534Z,98229.63
2022-07-31T12:00:55.114Z,98229.84
2022-07-31T12:02:58.973Z,98235.47
2022-07-31T12:05:04.151Z,98228.78
2022-07-31T12:07:08.414Z,98234.28
2022-07-31T12:10:01.177Z,98231.13
2022-07-31T12:11:34.887Z,98233.72
2022-07-31T12:13:38.521Z,98234.06
2022-07-31T12:15:42.326Z,98226.91
2022-07-31T12:17:47.181Z,98214.00
2022-07-31T12:19:52.852Z,98212.81
2022-07-31T12:21:58.256Z,98221.63
2022-07-31T12:24:02.349Z,98214.47
2022-07-31T12:26:05.445Z,98215.63
2022-07-31T12:28:10.097Z,98208.13
2022-07-31T12:30:17.062Z,98205.66
2022-07-31T12:32:25.752Z,98193.81
2022-07-31T12:34:31.994Z,98196.03
2022-07-31T12:36:35.070Z,98200.13
2022-07-31T12:38:44.707Z,98198.47
2022-07-31T12:40:49.286Z,98193.88
2022-07-31T12:42:52.669Z,98196.38
2022-07-31T12:44:57.553Z,98185.81
2022-07-31T12:47:01.486Z,98183.34
2022-07-31T12:49:05.054Z,98183.25
2022-07-31T12:51:09.499Z,98179.34
2022-07-31T12:53:12.708Z,98185.91
2022-07-31T12:55:17.220Z,98185.41
2022-07-31T12:57:21.175Z,98182.59
2022-07-31T12:59:24.274Z,98176.63
2022-07-31T13:01:27.457Z,98174.25
2022-07-31T13:03:38.951Z,98168.06
2022-07-31T13:05:52.117Z,98160.88
2022-07-31T13:07:56.867Z,98160.16
2022-07-31T13:10:15.045Z,98160.16
2022-07-31T13:12:23.046Z,98156.44
2022-07-31T13:14:26.117Z,98155.81
2022-07-31T13:16:29.389Z,98158.28
2022-07-31T13:18:35.561Z,98150.88
2022-07-31T13:20:38.818Z,98148.69
2022-07-31T13:22:41.895Z,98140.81
2022-07-31T13:24:46.313Z,98139.97
2022-07-31T13:26:49.951Z,98135.44
2022-07-31T13:28:52.984Z,98131.19
2022-07-31T13:30:56.057Z,98127.22
2022-07-31T13:32:59.135Z,98124.41
2022-07-31T13:35:25.930Z,98127.56
2022-07-31T13:37:25.458Z,98118.41
2022-07-31T13:39:28.557Z,98110.22
2022-07-31T13:41:35.107Z,98110.44
2022-07-31T13:43:38.743Z,98103.31
2022-07-31T13:46:01.871Z,98107.81
2022-07-31T13:48:09.359Z,98104.16
2022-07-31T13:50:12.887Z,98103.66
2022-07-31T13:52:15.974Z,98090.41
2022-07-31T13:54:19.031Z,98089.47
2022-07-31T13:56:39.679Z,98091.09
2022-07-31T13:58:48.067Z,98096.47
2022-07-31T14:00:51.108Z,98088.16
2022-07-31T14:02:54.179Z,98086.38
2022-07-31T14:04:57.275Z,98085.72
2022-07-31T14:07:00.822Z,98081.75
2022-07-31T14:09:04.138Z,98081.63
2022-07-31T14:11:13.757Z,98090.06
2022-07-31T14:13:18.456Z,98083.63
2022-07-31T14:15:25.377Z,98086.28
2022-07-31T14:17:31.707Z,98081.47
2022-07-31T14:19:44.049Z,98089.69
2022-07-31T14:21:50.042Z,98079.47
2022-07-31T14:23:59.742Z,98081.84
2022-07-31T14:26:03.531Z,98080.75
2022-07-31T14:28:07.015Z,98077.16
2022-07-31T14:30:11.298Z,98072.78
2022-07-31T14:32:16.052Z,98073.13
2022-07-31T14:34:19.161Z,98058.59
2022-07-31T14:36:22.571Z,98070.81
2022-07-31T14:38:27.584Z,98072.66
2022-07-31T14:40:30.987Z,98061.88
2022-07-31T14:42:34.062Z,98061.06
2022-07-31T14:44:38.316Z,98062.69
2022-07-31T14:46:41.552Z,98069.63
2022-07-31T14:48:46.093Z,98066.69
2022-07-31T14:50:49.366Z,98058.72
2022-07-31T14:52:52.464Z,98048.19
2022-07-31T14:54:55.769Z,98052.06
2022-07-31T14:57:01.874Z,98054.16
2022-07-31T14:59:05.305Z,98056.81
2022-07-31T15:01:08.430Z,98051.53
2022-07-31T15:03:11.648Z,98037.69
2022-07-31T15:06:38.649Z,98040.63
2022-07-31T15:07:46.263Z,98042.88
2022-07-31T15:09:49.795Z,98042.66
2022-07-31T15:12:00.480Z,98037.47
2022-07-31T15:14:05.040Z,98037.03
2022-07-31T15:16:09.421Z,98034.72
2022-07-31T15:18:12.688Z,98030.47
2022-07-31T15:20:17.222Z,98035.97
2022-07-31T15:22:20.451Z,98039.13
2022-07-31T15:24:23.604Z,98035.06
2022-07-31T15:26:27.245Z,98030.59
2022-07-31T15:28:30.315Z,98037.03
2022-07-31T15:30:33.381Z,98036.81
2022-07-31T15:32:37.469Z,98039.25
2022-07-31T15:34:40.619Z,98037.88
2022-07-31T15:36:45.140Z,98035.28
2022-07-31T15:38:48.214Z,98033.50
2022-07-31T15:40:51.447Z,98028.72
2022-07-31T15:42:54.618Z,98025.22
2022-07-31T15:44:57.997Z,98022.03
2022-07-31T15:47:01.165Z,98019.91
2022-07-31T15:49:05.648Z,98025.44
2022-07-31T15:51:10.453Z,98017.94
2022-07-31T15:53:14.951Z,98023.81
2022-07-31T15:55:21.792Z,98012.19
2022-07-31T15:57:25.625Z,98020.50
2022-07-31T15:59:28.816Z,98006.44
2022-07-31T16:01:32.079Z,98013.34
2022-07-31T16:03:50.406Z,98007.97
2022-07-31T16:05:56.257Z,98012.88
2022-07-31T16:08:29.795Z,98004.78
2022-07-31T16:10:24.164Z,98008.34
2022-07-31T16:12:27.710Z,98000.13
2022-07-31T16:14:33.596Z,97998.00
2022-07-31T16:16:37.130Z,97994.34
2022-07-31T16:18:40.323Z,97992.00
2022-07-31T16:20:44.504Z,97992.56
2022-07-31T16:22:51.312Z,97992.72
2022-07-31T16:24:57.247Z,97994.69
2022-07-31T16:27:01.880Z,97985.44
2022-07-31T16:29:05.522Z,97985.88
2022-07-31T16:31:12.909Z,97985.63
2022-07-31T16:33:33.588Z,97983.66
2022-07-31T16:35:36.754Z,97978.41
2022-07-31T16:37:50.027Z,97982.25
2022-07-31T16:39:56.839Z,97980.16
2022-07-31T16:42:01.270Z,97976.19
2022-07-31T16:44:04.853Z,97973.88
2022-07-31T16:46:08.113Z,97973.50
2022-07-31T16:48:11.222Z,97974.19
2022-07-31T16:50:14.389Z,97975.75
2022-07-31T16:52:17.835Z,97973.75
2022-07-31T16:54:20.925Z,97970.09
2022-07-31T16:56:24.036Z,97979.34
2022-07-31T16:58:28.573Z,97970.31
2022-07-31T17:00:31.814Z,97971.84
2022-07-31T17:02:34.988Z,97973.94
2022-07-31T17:04:38.075Z,97976.28
2022-07-31T17:06:41.207Z,97975.47
2022-07-31T17:08:44.719Z,97978.16
2022-07-31T17:10:52.496Z,97971.13
2022-07-31T17:12:57.696Z,97971.13
2022-07-31T17:15:02.171Z,97971.59
2022-07-31T17:17:05.662Z,97969.13
2022-07-31T17:19:08.881Z,97973.47
2022-07-31T17:21:16.385Z,97970.44
2022-07-31T17:23:42.938Z,97973.47
2022-07-31T17:25:42.643Z,97970.06
2022-07-31T17:27:45.717Z,97966.91
2022-07-31T17:29:48.776Z,97965.41
2022-07-31T17:31:53.218Z,97968.09
2022-07-31T17:34:00.617Z,97973.50
2022-07-31T17:36:05.130Z,97969.03
2022-07-31T17:38:08.272Z,97968.88
2022-07-31T17:40:33.540Z,97973.13
2022-07-31T17:42:34.848Z,97974.06
2022-07-31T17:44:38.077Z,97971.59
2022-07-31T17:46:48.089Z,97978.25
2022-07-31T17:48:54.341Z,97977.91
2022-07-31T17:50:59.963Z,97982.91
2022-07-31T17:53:03.201Z,97989.59
2022-07-31T17:55:07.959Z,97985.72
2022-07-31T17:57:11.003Z,97984.53
2022-07-31T17:59:16.051Z,97989.75
2022-07-31T18:01:19.177Z,97986.47
2022-07-31T18:03:22.562Z,97985.28
2022-07-31T18:05:27.132Z,97987.63
2022-07-31T18:07:30.214Z,97987.84
2022-07-31T18:09:36.543Z,97983.75
2022-07-31T18:11:39.807Z,97989.59
2022-07-31T18:13:48.780Z,97984.66
2022-07-31T18:15:54.995Z,97992.16
2022-07-31T18:17:58.086Z,97995.31
2022-07-31T18:20:01.282Z,97995.97
2022-07-31T18:22:06.089Z,97993.97
2022-07-31T18:24:09.653Z,97999.00
2022-07-31T18:26:12.801Z,97987.88
2022-07-31T18:28:16.114Z,97988.34
2022-07-31T18:30:19.401Z,97987.13
2022-07-31T18:32:22.548Z,97990.47
2022-07-31T18:34:25.665Z,97996.91
2022-07-31T18:36:28.849Z,97988.25
2022-07-31T18:38:33.343Z,97992.19
2022-07-31T18:40:36.843Z,97990.19
2022-07-31T18:42:39.935Z,97991.47
2022-07-31T18:44:43.066Z,97989.00
2022-07-31T18:46:46.243Z,97995.66
2022-07-31T18:48:54.657Z,97982.88
2022-07-31T18:51:04.572Z,97994.31
2022-07-31T18:53:08.330Z,97991.47
2022-07-31T18:55:12.926Z,97990.28
2022-07-31T18:57:16.049Z,97987.22
2022-07-31T18:59:19.209Z,97986.25
2022-07-31T19:01:22.751Z,97993.94
2022-07-31T19:03:29.676Z,97990.91
2022-07-31T19:05:32.885Z,97986.97
2022-07-31T19:07:37.367Z,97996.53
2022-07-31T19:09:40.808Z,97995.56
2022-07-31T19:11:51.167Z,97993.97
2022-07-31T19:13:55.406Z,98004.56
2022-07-31T19:15:58.664Z,97992.47
2022-07-31T19:18:02.334Z,97998.72
2022-07-31T19:20:07.295Z,98004.97
2022-07-31T19:22:15.694Z,98011.22
2022-07-31T19:24:19.169Z,98006.72
2022-07-31T19:26:22.272Z,98004.91
2022-07-31T19:28:27.443Z,98009.88
2022-07-31T19:30:30.938Z,98006.44
2022-07-31T19:32:35.179Z,98017.81
2022-07-31T19:34:38.674Z,98018.69
2022-07-31T19:36:46.317Z,98012.16
2022-07-31T19:38:51.799Z,98020.47
2022-07-31T19:40:54.956Z,98021.75
2022-07-31T19:42:59.636Z,98027.38
2022-07-31T19:45:04.650Z,98020.81
2022-07-31T19:47:07.894Z,98025.59
2022-07-31T19:49:11.045Z,98028.53
2022-07-31T19:51:15.608Z,98036.81
2022-07-31T19:53:18.740Z,98032.53
2022-07-31T19:55:21.803Z,98032.78
2022-07-31T19:57:25.312Z,98032.94
2022-07-31T19:59:28.971Z,98029.47
2022-07-31T20:01:33.491Z,98026.78
2022-07-31T20:03:37.238Z,98027.44
2022-07-31T20:05:40.387Z,98025.63
2022-07-31T20:07:43.647Z,98027.28
2022-07-31T20:09:47.940Z,98034.47
2022-07-31T20:11:51.091Z,98035.72
2022-07-31T20:13:54.207Z,98034.94
2022-07-31T20:15:57.313Z,98036.97
2022-07-31T20:18:01.823Z,98044.41
2022-07-31T20:20:15.534Z,98039.03
2022-07-31T20:22:19.322Z,98038.63
2022-07-31T20:24:25.320Z,98046.66
2022-07-31T20:26:29.321Z,98043.56
2022-07-31T20:28:32.514Z,98050.78
2022-07-31T20:30:35.866Z,98047.25
2022-07-31T20:32:39.073Z,98049.28
2022-07-31T20:34:53.378Z,98049.66
2022-07-31T20:36:58.648Z,98047.59
2022-07-31T20:39:02.369Z,98054.53
2022-07-31T20:41:05.496Z,98053.28
2022-07-31T20:43:08.655Z,98049.31
2022-07-31T20:45:12.423Z,98054.44
2022-07-31T20:47:15.591Z,98048.69
2022-07-31T20:49:19.643Z,98050.91
2022-07-31T20:51:40.056Z,98050.91
2022-07-31T20:53:44.001Z,98056.47
2022-07-31T20:55:49.728Z,98055.41
2022-07-31T20:57:53.060Z,98050.19
2022-07-31T20:59:56.140Z,98059.00
2022-07-31T21:01:59.281Z,98055.28
2022-07-31T21:04:02.708Z,98055.88
2022-07-31T21:06:06.894Z,98062.41
2022-07-31T21:08:11.965Z,98068.53
2022-07-31T21:10:15.873Z,98064.78
2022-07-31T21:12:18.948Z,98070.31
2022-07-31T21:14:22.133Z,98068.03
2022-07-31T21:16:25.291Z,98075.81
2022-07-31T21:18:32.733Z,98066.34
2022-07-31T21:20:52.247Z,98075.59
2022-07-31T21:22:56.493Z,98073.47
2022-07-31T21:25:04.401Z,98068.72
2022-07-31T21:27:09.027Z,98071.16
2022-07-31T21:29:12.392Z,98071.06
2022-07-31T21:31:15.845Z,98075.75
2022-07-31T21:33:19.220Z,98079.19
2022-07-31T21:35:36.644Z,98075.41
2022-07-31T21:37:40.766Z,98074.56
2022-07-31T21:39:44.651Z,98072.47
2022-07-31T21:41:49.808Z,98080.19
2022-07-31T21:43:59.339Z,98083.25
2022-07-31T21:46:04.731Z,98081.81
2022-07-31T21:48:12.962Z,98080.31
2022-07-31T21:50:16.898Z,98081.72
2022-07-31T21:52:32.364Z,98082.06
2022-07-31T21:54:35.584Z,98075.09
2022-07-31T21:56:38.721Z,98082.44
2022-07-31T21:58:44.223Z,98083.66
2022-07-31T22:00:47.940Z,98085.22
2022-07-31T22:02:51.211Z,98083.50
2022-07-31T22:05:23.271Z,98100.72
2022-07-31T22:07:35.080Z,98087.78
2022-07-31T22:09:40.648Z,98094.09
2022-07-31T22:11:43.797Z,98095.28
2022-07-31T22:14:06.175Z,98092.19
2022-07-31T22:16:10.126Z,98097.91
2022-07-31T22:18:13.500Z,98094.13
2022-07-31T22:20:19.734Z,98099.19
2022-07-31T22:22:23.860Z,98099.94
2022-07-31T22:24:27.311Z,98102.97
2022-07-31T22:26:31.978Z,98109.72
2022-07-31T22:28:34.867Z,98101.91
2022-07-31T22:30:39.776Z,98109.25
2022-07-31T22:32:42.927Z,98111.28
2022-07-31T22:34:46.284Z,98110.63
2022-07-31T22:36:49.393Z,98097.50
2022-07-31T22:38:52.650Z,98108.31
2022-07-31T22:40:55.844Z,98102.31
2022-07-31T22:42:59.274Z,98102.69
2022-07-31T22:45:06.573Z,98104.09
2022-07-31T22:47:11.242Z,98110.34
2022-07-31T22:49:14.876Z,98110.03
2022-07-31T22:51:18.275Z,98114.91
2022-07-31T22:53:21.322Z,98111.63
2022-07-31T22:55:24.353Z,98107.47
2022-07-31T22:57:27.457Z,98102.50
2022-07-31T22:59:30.550Z,98108.38
2022-07-31T23:01:34.010Z,98110.59
2022-07-31T23:03:39.894Z,98118.94
2022-07-31T23:06:02.397Z,98118.00
2022-07-31T23:08:06.531Z,98122.41
2022-07-31T23:10:12.272Z,98126.00
2022-07-31T23:12:15.376Z,98121.53
2022-07-31T23:14:18.690Z,98121.72
2022-07-31T23:16:21.972Z,98124.38
2022-07-31T23:18:25.048Z,98125.00
2022-07-31T23:20:29.600Z,98133.34
2022-07-31T23:22:34.167Z,98134.97
2022-07-31T23:24:37.566Z,98128.66
2022-07-31T23:26:40.680Z,98135.25
2022-07-31T23:28:43.719Z,98124.78
2022-07-31T23:30:46.782Z,98130.31
2022-07-31T23:32:49.908Z,98129.47
2022-07-31T23:34:53.198Z,98128.66
2022-07-31T23:36:57.668Z,98129.47
2022-07-31T23:39:00.781Z,98128.66
2022-07-31T23:41:04.087Z,98125.00
2022-07-31T23:43:06.108Z,98125.81
2022-07-31T23:45:11.280Z,98126.81
2022-07-31T23:47:16.032Z,98129.00
2022-07-31T23:49:19.330Z,98130.50
2022-07-31T23:51:22.388Z,98126.94
2022-07-31T23:53:26.887Z,98127.81
2022-07-31T23:55:29.935Z,98136.34
2022-07-31T23:57:34.388Z,98136.03
2022-07-31T23:59:37.922Z,98131.44
